Agios Nikolas — SVAV5 — position and weather

sailwx.info

Track history (hours):
 
Tides and Currents Weather Stations Pressure Air Temp Water Temp Dewpoint Dewpoint Depression Visibility Wind Speed Wind Dir Waves Ship Positions

Agios Nikolas

Last reported at 2016-May-01 10:33 UTC. Time now 2016-May-02 05:53 UTC.
Position N 01°15' E 104°02'.

Length 225 m; draft 11.7 m.

Type: Cargo ship. MMSI: 240963000.

Date/timePositionNaut miles runAvg speedWind from/ knotsBaromVisibWave heightAir tempDewpointWater temp
2016-May-01 10:33N 01°15' E 104°02'4 3.9
2016-May-01 09:29N 01°17' E 103°58'0 0.0
2016-May-01 08:05N 01°17' E 103°58'0 0.2
2016-May-01 07:32N 01°17' E 103°58'0 0.1
2016-May-01 06:23N 01°17' E 103°58'0 0.0
2016-May-01 05:23N 01°17' E 103°58'0 0.0
2016-May-01 04:32N 01°17' E 103°58'0 0.1
2016-May-01 03:32N 01°17' E 103°58'0 0.0
2016-May-01 02:29N 01°17' E 103°58'0 0.0
2016-May-01 01:29N 01°17' E 103°58'0 0.0
2016-May-01 00:29N 01°17' E 103°58'0 0.0
2016-Apr-30 23:26N 01°17' E 103°58'0 0.0
2016-Apr-30 22:23N 01°17' E 103°58'0 0.1
2016-Apr-30 21:32N 01°17' E 103°58'1 1.3
2016-Apr-30 20:33N 01°16' E 103°57'6 5.6
2016-Apr-30 19:32N 01°12' E 103°53'7 6.8
2016-Apr-30 18:33N 01°09' E 103°47'6 6.2
2016-Apr-30 17:33N 01°04' E 103°43'6 6.0
2016-Apr-30 16:33N 01°04' E 103°37'10 9.3
2016-Apr-30 15:30N 01°09' E 103°28'1110.0
2016-Apr-30 14:27N 01°15' E 103°20'  
Track history (hours):
 
Tides and Currents Weather Stations Pressure Air Temp Water Temp Dewpoint Dewpoint Depression Visibility Wind Speed Wind Dir Waves Ship Positions

Agios Nikolas

Last reported at 2016-May-01 10:33 UTC. Time now 2016-May-02 05:53 UTC.
Position N 01°15' E 104°02'.

Length 225 m; draft 11.7 m.

Type: Cargo ship. MMSI: 240963000.

Date/timePositionNaut miles runAvg speedWind from/ knotsBaromVisibWave heightAir tempDewpointWater temp
2016-May-01 10:33N 01°15' E 104°02'4 3.9
2016-May-01 09:29N 01°17' E 103°58'0 0.0
2016-May-01 08:05N 01°17' E 103°58'0 0.2
2016-May-01 07:32N 01°17' E 103°58'0 0.1
2016-May-01 06:23N 01°17' E 103°58'0 0.0
2016-May-01 05:23N 01°17' E 103°58'0 0.0
2016-May-01 04:32N 01°17' E 103°58'0 0.1
2016-May-01 03:32N 01°17' E 103°58'0 0.0
2016-May-01 02:29N 01°17' E 103°58'0 0.0
2016-May-01 01:29N 01°17' E 103°58'0 0.0
2016-May-01 00:29N 01°17' E 103°58'0 0.0
2016-Apr-30 23:26N 01°17' E 103°58'0 0.0
2016-Apr-30 22:23N 01°17' E 103°58'0 0.1
2016-Apr-30 21:32N 01°17' E 103°58'1 1.3
2016-Apr-30 20:33N 01°16' E 103°57'6 5.6
2016-Apr-30 19:32N 01°12' E 103°53'7 6.8
2016-Apr-30 18:33N 01°09' E 103°47'6 6.2
2016-Apr-30 17:33N 01°04' E 103°43'6 6.0
2016-Apr-30 16:33N 01°04' E 103°37'10 9.3
2016-Apr-30 15:30N 01°09' E 103°28'1110.0
2016-Apr-30 14:27N 01°15' E 103°20'  

Dump ship's entire track history